Altoona Blair County Airport
KAOO : now visible

Airfield :











YOU CAN JOIN US ON...

 
LOGIN :

Register | Disclaimer

   EN    FR    IT 

 









Legend :    VFR   Marginal VFR   IFR   Intensive IFR   Very Intensive IFR
Visi :
Ceiling :
>= 8 km
>= 3000ft
5 to 8 km
1000 to 3000 ft
1500m to 5 km
500 to 1000 ft
800 to 1500m
200 to 500 ft
< 800m
< 200 ft
Symbols :   Thunderstorms  Fog  Heavy snow  Heavy precipitations  Wind > 20 kt






- Airport Elevation : 1503 ft
- IATA code : AOO


KAOO - Altoona Blair County

CURRENT METAR :
  • 211653Z AUTO 22011G19KT 10SM FEW040 23/11 A2996 RMK AO2 SLP137 T02330111

EXPIRED METARs :
  • 211553Z AUTO 20010KT 10SM CLR 21/11 A3000 RMK AO2 SLP153 T02060111
  • 211453Z AUTO 20010KT 10SM FEW035 19/10 A3002 RMK AO2 SLP162 T01890100 58008

TAF KAOO
Valid from the 21 at 16:00 until the 22 at 12:00 UTC


211540Z 2116/2212 21009G15KT P6SM SCT035 BKN100
FM212100 23010G20KT P6SM SHRA VCTS BKN050CB
FM220500 27008G16KT P6SM -SHRA OVC035
FM221000 28008KT P6SM -SHRA OVC030
KZOB FIR / North America



MET'MAP, your aeronautical weather chart ! - Copyright ORBIFLY December 2007 - Disclaimer

ORBIFLY MET'MAP TEAM :

Programming & Development : Alexandra Zaïnal
Concept & original design : Baudouin d'Aumeries
Assistance for programming : Marc-Olivier Méhu
Technical & hardware support : Manuel Goepfert

Contact : metmap@orbifly.com




SOURCES & CREDITS :

   NOAA       Earth
Advisory